Daiki Hasebe

Recruteur en chef - Shonan Bellmare
24 Juil 2027
Samedi
Processus

Personnalité

Adaptabilité (16) Ambition (12) Controverse (20) Loyauté (8) Pression (11) Professionnalisme (4) Sportivité (18) Tempérament (5)

Profil

Style d'entraînement Démocratique
Diplôme National A
Détermination 7
Gestion des joueurs 11
Motivation 10
Discipline 9
Satisfaction professionnelle
100%
Fatigue
0%
Rôle Recruteur en chef
Salaire 62.7K p/s
Contrat 14.03.2029

Performance

Comportement Bon
Efficacité de l'entraînement
36%
Développement des joueurs
40%
Prévention des blessures
45%
Mise en place tactique
20%

Événements récents

A participé à une réunion de recrutement maintenant
A recommandé une cible de transfert maintenant
A participé à une réunion de recrutement maintenant
A participé à une réunion de recrutement maintenant
A participé à une réunion de recrutement maintenant
A présenté un dossier au conseil maintenant
A participé à une réunion de recrutement 7j
A participé à une réunion de recrutement 7j

Suivi en cours

116
Joueur Club Statut Capacité Confiance Observé Dernière observation Dernier vote
Caio Vidal FC Copenhagen Négociation 128 / 129 63% 1 22.07.2027 -
Angelo Gattermayer Randers Négociation 120 / 122 66% 1 22.07.2027 -
Patrick Agyemang Derby County Actif 131 / 131 40% 1 22.02.2027 -
Marcus Vinicius Nagoya Grampus Actif 104 / 109 55% 1 15.02.2027 -
Strahinja Manojlović Radnicki Nis Actif 95 / 112 40% 1 08.02.2027 -
Dean David Yokohama F. Marinos Actif 104 / 107 55% 1 25.01.2027 -
Balázs Tóth Blackburn Rovers Actif 133 / 128 40% 1 15.01.2027 -
Nathan Bishop AFC Wimbledon Actif 101 / 105 40% 2 05.01.2027 -
Mao Hosoya Manchester City Négociation 134 / 135 67% 1 05.01.2027 Approuver
Lukas Gütlbauer Wolfsberger AC Actif 112 / 118 40% 6 02.01.2027 -
Matouš Trmal Teplice Actif 132 / 123 40% 3 02.01.2027 -
Vladan Kovačević Norwich City Actif 110 / 118 40% 2 02.01.2027 -
David Volk Dinamo Makhachkala Actif 108 / 103 40% 1 31.12.2026 -
Daniel Iversen Preston Actif 130 / 131 40% 2 30.12.2026 -
Josh Keeley Luton Town Actif 113 / 114 40% 2 29.12.2026 -
Iñaki Peña Panathinaikos Actif 148 / 151 40% 3 29.12.2026 -
Anton Zhylkin Karpaty Actif 92 / 90 40% 2 28.12.2026 -
Arthur Beroe Actif 98 / 117 40% 3 28.12.2026 -
Michael Cooper Sheffield United Actif 134 / 124 40% 5 28.12.2026 -
Filip Marschall Stevenage Actif 113 / 116 40% 4 26.12.2026 -
Osagie Onisodumeya Al Gaish Actif 94 / 88 40% 1 25.12.2026 -
Zach Hemming Chesterfield Actif 109 / 97 40% 1 25.12.2026 -
Killian Cahill Leyton Orient Actif 101 / 112 40% 2 22.12.2026 -
Tom Booth Crewe Alexandra Actif 100 / 109 40% 1 21.12.2026 -
Mohammed Galadima Aswan Actif 110 / 96 40% 2 19.12.2026 -
Lukas Jensen Millwall Actif 117 / 118 40% 2 19.12.2026 -
Nicolas Schmid Portsmouth Actif 128 / 117 40% 2 19.12.2026 -
Davor Matijaš HNK Gorica Actif 114 / 117 40% 1 19.12.2026 -
Carl Rushworth Coventry City Actif 139 / 130 40% 2 17.12.2026 -
Murphy Cooper Plymouth Argyle Actif 122 / 104 40% 2 17.12.2026 -
Albert Posiadała Molde Actif 126 / 118 40% 4 16.12.2026 -
Kanya Fujimoto Stevenage Actif 126 / 113 40% 1 15.12.2026 -
Anthony Patterson Wrexham Actif 121 / 120 40% 3 11.12.2026 -
Tomoki Hayakawa Kashima Antlers Actif 131 / 138 40% 4 09.12.2026 Observer
Igor Nikić Lech Actif 132 / 117 40% 3 08.12.2026 -
Radek Vítek Middlesbrough Actif 139 / 127 40% 2 07.12.2026 Plus d'infos
Koki Saito Queens Park Rangers Actif 121 / 129 40% 1 07.12.2026 -
Artem Slesar Zorya Actif 125 / 116 40% 1 07.12.2026 Plus d'infos
Marcus Bundgaard SonderjyskE Actif 106 / 104 40% 2 04.12.2026 -
Jordan Amissah Burton Albion Actif 107 / 98 40% 2 03.12.2026 -
Kazuki Fujita Avispa Fukuoka Actif 131 / 133 40% 4 01.12.2026 -
Taye Ashby-Hammond Cheltenham Town Actif 99 / 93 40% 2 29.11.2026 -
Antonio Đaković HNK Vukovar 1991 Actif 126 / 115 40% 1 29.11.2026 -
Jack Rudoni Coventry City Actif 128 / 124 40% 1 28.11.2026 -
Issei Ouchi Sanfrecce Hiroshima Actif 82 / 88 40% 1 26.11.2026 -
Viktor Johansson Stoke City Actif 132 / 141 40% 2 24.11.2026 -
George Wickens Lincoln City Actif 110 / 115 40% 1 23.11.2026 -
Fran Vieites Exeter City Actif 128 / 111 40% 1 21.11.2026 -
Vincent Müller Aalborg Actif 108 / 104 40% 2 19.11.2026 -
Robby McCrorie NK Varazdin Actif 122 / 109 40% 1 18.11.2026 -
Mateusz Kochalski Qarabag Actif 138 / 121 40% 2 17.11.2026 -
Ryosuke Kojima Kashiwa Reysol Actif 127 / 119 40% 3 16.11.2026 -
Dominik Takáč Slovan Bratislava Actif 130 / 143 40% 2 15.11.2026 -
Samuel Brolin Kalmar FF Actif 121 / 125 40% 2 13.11.2026 -
Thomas Glover Omiya Ardija Actif 128 / 114 40% 2 13.11.2026 -
Martin Trnovský Podbrezova Actif 121 / 110 40% 1 13.11.2026 -
Franko Kolić Istra 1961 Actif 97 / 124 40% 3 12.11.2026 -
Heorhii Yermakov Metalist Actif 122 / 124 40% 1 12.11.2026 -
Bento Lokomotiv Moscow Actif 124 / 118 40% 5 09.11.2026 -
Mattias Lamhauge Stromsgodset Actif 89 / 108 40% 1 09.11.2026 -
Ivan Pakholiuk Kolos Actif 97 / 130 40% 1 08.11.2026 -
Raúl Rangel Brighton Actif 135 / 133 40% 1 07.11.2026 -
Ryota Izumori Sagan Tosu Actif 111 / 115 40% 2 06.11.2026 -
Svend Brodersen Kawasaki Frontale Actif 119 / 128 40% 1 06.11.2026 -
Petr Kosarevskiy Sibir Actif 103 / 110 40% 1 05.11.2026 -
Chihiro Konagaya Albirex Niigata Actif 109 / 120 40% 1 05.11.2026 -
Marios Siabanis Volos NPS Actif 124 / 126 40% 1 03.11.2026 -
Christian Früchtl Red Bull Salzburg Actif 107 / 121 40% 1 03.11.2026 -
Angel Zamudio CFR Cluj Actif 116 / 113 40% 1 02.11.2026 -
Kenta Matsumoto Kashiwa Reysol Actif 107 / 106 40% 2 30.10.2026 -
Jan Bačkovský Dukla Prague Actif 112 / 117 40% 1 30.10.2026 -
Oleh Bilyk Epicentr Actif 93 / 85 40% 1 30.10.2026 -
Álvaro Fernández Deportivo La Coruña Actif 135 / 141 40% 1 29.10.2026 -
Metod Jurhar Voluntari Actif 127 / 109 40% 1 27.10.2026 -
Pontus Dahlberg Lillestrom Actif 96 / 94 40% 1 27.10.2026 -
Ani Ozoemena Rivers United Actif 93 / 94 40% 1 26.10.2026 -
Tojiro Kubo Kashiwa Reysol Actif 121 / 127 40% 2 25.10.2026 -
Suleiman Camara Slovan Bratislava Actif 114 / 105 40% 1 25.10.2026 -
Elías Rafn Ólafsson FC Midtjylland Actif 130 / 116 40% 1 25.10.2026 -
Denys Ihnatenko Livyi Bereh Actif 115 / 119 40% 1 24.10.2026 -
Abduvohid Ne'matov Nasaf Actif 105 / 105 40% 1 22.10.2026 -
Laurenţiu Popescu Viitorul Actif 109 / 115 40% 1 22.10.2026 -
Jacob Karlstrøm Anorthosis Actif 128 / 128 40% 1 21.10.2026 -
Žiga Frelih NK Celje Actif 124 / 104 40% 2 20.10.2026 -
Mustapha Lawal Shooting Stars Actif 102 / 82 40% 1 20.10.2026 -
Matevž Vidovšek Olimpija Ljubljana Actif 133 / 126 40% 1 19.10.2026 -
Arthur Augusto Semen Padang Actif 107 / 100 40% 2 18.10.2026 -
Oscar Hedvall Valerenga Actif 117 / 113 40% 2 17.10.2026 -
Sławomir Abramowicz Jagiellonia Actif 102 / 124 40% 1 15.10.2026 -
Svetoslav Vutsov Levski Actif 108 / 133 40% 1 15.10.2026 -
Ruslan Neshcheret Dynamo Kyiv Actif 102 / 115 40% 2 14.10.2026 -
Ştefan Târnovanu FCSB Actif 129 / 116 40% 1 14.10.2026 -
Louis Yamaguchi Kawasaki Frontale Actif 114 / 125 40% 1 13.10.2026 -
Hayate Tanaka FC Tokyo Actif 114 / 116 40% 1 12.10.2026 -
Elias Hadaya Sandefjord Actif 112 / 116 40% 1 09.10.2026 -
Victor Aznar Cádiz Actif 121 / 129 40% 1 09.10.2026 -
Martin Melichar Pribram Actif 97 / 107 40% 1 08.10.2026 -
Cristopher Varela Deportivo La Guaira Actif 118 / 115 40% 1 05.10.2026 -
Shunta Araki Vegalta Sendai Actif 121 / 104 40% 1 02.10.2026 -
Ryo Shiohama Sagan Tosu Actif 118 / 108 40% 1 29.09.2026 -
John Mercado Sparta Prague Actif 129 / 119 40% 1 29.09.2026 -
Yuto Yamada Kashiwa Reysol Actif 104 / 110 40% 1 28.09.2026 -
Oliver Petersen Helsingborg Actif 105 / 115 40% 1 24.09.2026 -
Lucas Lund Viborg Actif 108 / 96 40% 1 23.09.2026 -
Christian Krasnodar Actif 133 / 124 40% 1 22.09.2026 -
Klemen Mihelak Jablonec Actif 91 / 108 40% 1 21.09.2026 -
Yuma Obata Avispa Fukuoka Actif 110 / 111 40% 2 16.09.2026 -
Miguel Silva Carabobo Actif 110 / 108 40% 1 15.09.2026 -
Vincent Edafe Warri Wolves Actif 100 / 104 40% 1 15.09.2026 -
Tim Rönning Halmstad Actif 106 / 114 40% 1 14.09.2026 -
Sharp Uzoigwe Abia Warriors Actif 93 / 94 40% 1 14.09.2026 -
Ángel González Libertad Actif 110 / 98 40% 1 12.09.2026 -
Patrick Beach Melbourne City Actif 92 / 95 40% 1 11.09.2026 -
Matthew Sutton Perth Glory Actif 97 / 106 40% 1 17.08.2026 -
Kosuke Nakamura Gamba Osaka Actif 124 / 106 40% 1 17.08.2026 -
Julen Agirrezabala Racing Santander Actif 148 / 147 40% 1 01.08.2026 -